sensor_id;sensor_type;location;lat;lon;timestamp;P1;durP1;ratioP1;P2;durP2;ratioP2
291;SDS011;23311;48.776;9.162;2023-09-12T00:00:57;13.70;;;11.23;;
291;SDS011;23311;48.776;9.162;2023-09-12T00:03:25;11.33;;;9.53;;
291;SDS011;23311;48.776;9.162;2023-09-12T00:05:54;11.53;;;9.97;;
291;SDS011;23311;48.776;9.162;2023-09-12T00:08:24;13.93;;;10.50;;
291;SDS011;23311;48.776;9.162;2023-09-12T00:11:00;11.00;;;10.40;;
291;SDS011;23311;48.776;9.162;2023-09-12T00:13:29;12.30;;;10.27;;
291;SDS011;23311;48.776;9.162;2023-09-12T00:15:58;11.00;;;10.43;;
291;SDS011;23311;48.776;9.162;2023-09-12T00:18:26;11.50;;;10.90;;
291;SDS011;23311;48.776;9.162;2023-09-12T00:20:55;14.80;;;11.50;;
291;SDS011;23311;48.776;9.162;2023-09-12T00:23:24;12.83;;;9.47;;
291;SDS011;23311;48.776;9.162;2023-09-12T00:25:52;12.97;;;10.90;;
291;SDS011;23311;48.776;9.162;2023-09-12T00:28:20;9.83;;;9.33;;
291;SDS011;23311;48.776;9.162;2023-09-12T00:30:49;12.10;;;9.83;;
291;SDS011;23311;48.776;9.162;2023-09-12T00:33:18;13.43;;;10.27;;
291;SDS011;23311;48.776;9.162;2023-09-12T00:35:47;10.80;;;10.23;;
291;SDS011;23311;48.776;9.162;2023-09-12T00:38:15;17.00;;;11.50;;
291;SDS011;23311;48.776;9.162;2023-09-12T00:40:44;14.00;;;10.90;;
291;SDS011;23311;48.776;9.162;2023-09-12T00:43:12;13.10;;;10.53;;
291;SDS011;23311;48.776;9.162;2023-09-12T00:45:40;12.27;;;11.40;;
291;SDS011;23311;48.776;9.162;2023-09-12T00:48:09;11.20;;;10.60;;
291;SDS011;23311;48.776;9.162;2023-09-12T00:50:40;11.03;;;10.00;;
291;SDS011;23311;48.776;9.162;2023-09-12T00:53:09;13.60;;;10.50;;
291;SDS011;23311;48.776;9.162;2023-09-12T00:55:38;12.03;;;10.47;;
291;SDS011;23311;48.776;9.162;2023-09-12T00:58:11;10.83;;;10.23;;
291;SDS011;23311;48.776;9.162;2023-09-12T01:00:41;14.03;;;11.43;;
291;SDS011;23311;48.776;9.162;2023-09-12T01:03:09;11.70;;;10.40;;
291;SDS011;23311;48.776;9.162;2023-09-12T01:05:37;15.20;;;10.97;;
291;SDS011;23311;48.776;9.162;2023-09-12T01:08:06;12.20;;;10.50;;
291;SDS011;23311;48.776;9.162;2023-09-12T01:10:34;13.57;;;10.30;;
291;SDS011;23311;48.776;9.162;2023-09-12T01:13:02;12.63;;;11.07;;
291;SDS011;23311;48.776;9.162;2023-09-12T01:15:32;14.70;;;11.80;;
291;SDS011;23311;48.776;9.162;2023-09-12T01:18:00;11.90;;;11.30;;
291;SDS011;23311;48.776;9.162;2023-09-12T01:20:29;11.73;;;11.13;;
291;SDS011;23311;48.776;9.162;2023-09-12T01:23:06;12.83;;;10.73;;
291;SDS011;23311;48.776;9.162;2023-09-12T01:25:50;11.57;;;10.97;;
291;SDS011;23311;48.776;9.162;2023-09-12T01:28:33;11.10;;;10.57;;
291;SDS011;23311;48.776;9.162;2023-09-12T01:31:02;16.83;;;11.87;;
291;SDS011;23311;48.776;9.162;2023-09-12T01:33:30;12.53;;;10.93;;
291;SDS011;23311;48.776;9.162;2023-09-12T01:35:59;12.10;;;11.00;;
291;SDS011;23311;48.776;9.162;2023-09-12T01:38:27;11.37;;;10.30;;
291;SDS011;23311;48.776;9.162;2023-09-12T01:40:56;11.87;;;10.63;;
291;SDS011;23311;48.776;9.162;2023-09-12T01:43:25;14.60;;;11.67;;
291;SDS011;23311;48.776;9.162;2023-09-12T01:45:57;16.73;;;11.43;;
291;SDS011;23311;48.776;9.162;2023-09-12T01:48:28;12.90;;;11.10;;
291;SDS011;23311;48.776;9.162;2023-09-12T01:51:00;15.70;;;10.03;;
291;SDS011;23311;48.776;9.162;2023-09-12T01:53:29;12.30;;;11.70;;
291;SDS011;23311;48.776;9.162;2023-09-12T01:55:59;11.80;;;10.43;;
291;SDS011;23311;48.776;9.162;2023-09-12T01:58:28;11.20;;;10.33;;
291;SDS011;23311;48.776;9.162;2023-09-12T02:00:57;11.43;;;10.83;;
291;SDS011;23311;48.776;9.162;2023-09-12T02:03:26;13.23;;;11.10;;
291;SDS011;23311;48.776;9.162;2023-09-12T02:05:54;12.10;;;11.03;;
291;SDS011;23311;48.776;9.162;2023-09-12T02:08:21;11.57;;;10.30;;
291;SDS011;23311;48.776;9.162;2023-09-12T02:10:49;12.27;;;9.83;;
291;SDS011;23311;48.776;9.162;2023-09-12T02:13:17;13.70;;;10.53;;
291;SDS011;23311;48.776;9.162;2023-09-12T02:15:45;12.67;;;10.33;;
291;SDS011;23311;48.776;9.162;2023-09-12T02:18:15;12.17;;;11.57;;
291;SDS011;23311;48.776;9.162;2023-09-12T02:20:43;11.20;;;10.60;;
291;SDS011;23311;48.776;9.162;2023-09-12T02:23:12;11.30;;;10.67;;
291;SDS011;23311;48.776;9.162;2023-09-12T02:25:40;14.03;;;12.10;;
291;SDS011;23311;48.776;9.162;2023-09-12T02:28:08;16.47;;;12.60;;
291;SDS011;23311;48.776;9.162;2023-09-12T02:30:37;11.50;;;10.90;;
291;SDS011;23311;48.776;9.162;2023-09-12T02:33:07;13.30;;;12.03;;
291;SDS011;23311;48.776;9.162;2023-09-12T02:35:37;13.00;;;11.50;;
291;SDS011;23311;48.776;9.162;2023-09-12T02:38:05;12.37;;;11.17;;
291;SDS011;23311;48.776;9.162;2023-09-12T02:40:33;11.03;;;9.83;;
291;SDS011;23311;48.776;9.162;2023-09-12T02:43:01;10.40;;;9.83;;
291;SDS011;23311;48.776;9.162;2023-09-12T02:45:29;11.50;;;10.90;;
291;SDS011;23311;48.776;9.162;2023-09-12T02:47:58;12.40;;;11.80;;
291;SDS011;23311;48.776;9.162;2023-09-12T02:50:26;11.97;;;10.53;;
291;SDS011;23311;48.776;9.162;2023-09-12T02:52:55;13.40;;;11.13;;
291;SDS011;23311;48.776;9.162;2023-09-12T02:55:23;11.53;;;10.90;;
291;SDS011;23311;48.776;9.162;2023-09-12T02:57:52;13.00;;;11.27;;
291;SDS011;23311;48.776;9.162;2023-09-12T03:00:20;12.57;;;10.43;;
291;SDS011;23311;48.776;9.162;2023-09-12T03:02:48;11.50;;;10.90;;
291;SDS011;23311;48.776;9.162;2023-09-12T03:05:16;11.50;;;10.90;;
291;SDS011;23311;48.776;9.162;2023-09-12T03:07:44;15.93;;;10.73;;
291;SDS011;23311;48.776;9.162;2023-09-12T03:10:14;10.50;;;9.53;;
291;SDS011;23311;48.776;9.162;2023-09-12T03:12:42;11.77;;;10.70;;
291;SDS011;23311;48.776;9.162;2023-09-12T03:15:10;12.60;;;10.37;;
291;SDS011;23311;48.776;9.162;2023-09-12T03:17:39;11.20;;;10.57;;
291;SDS011;23311;48.776;9.162;2023-09-12T03:20:07;11.37;;;10.77;;
291;SDS011;23311;48.776;9.162;2023-09-12T03:22:36;11.80;;;11.20;;
291;SDS011;23311;48.776;9.162;2023-09-12T03:25:05;11.70;;;10.83;;
291;SDS011;23311;48.776;9.162;2023-09-12T03:27:35;12.10;;;11.50;;
291;SDS011;23311;48.776;9.162;2023-09-12T03:30:04;13.23;;;11.53;;
291;SDS011;23311;48.776;9.162;2023-09-12T03:32:33;16.93;;;11.07;;
291;SDS011;23311;48.776;9.162;2023-09-12T03:35:01;11.90;;;11.10;;
291;SDS011;23311;48.776;9.162;2023-09-12T03:37:29;13.10;;;11.43;;
291;SDS011;23311;48.776;9.162;2023-09-12T03:39:57;11.63;;;11.03;;
291;SDS011;23311;48.776;9.162;2023-09-12T03:42:25;12.00;;;11.03;;
291;SDS011;23311;48.776;9.162;2023-09-12T03:45:09;12.43;;;10.83;;
291;SDS011;23311;48.776;9.162;2023-09-12T03:47:38;14.53;;;10.90;;
291;SDS011;23311;48.776;9.162;2023-09-12T03:50:06;11.30;;;10.70;;
291;SDS011;23311;48.776;9.162;2023-09-12T03:52:34;12.10;;;11.30;;
291;SDS011;23311;48.776;9.162;2023-09-12T03:55:03;13.57;;;10.50;;
291;SDS011;23311;48.776;9.162;2023-09-12T03:57:31;11.80;;;10.70;;
291;SDS011;23311;48.776;9.162;2023-09-12T03:59:59;13.13;;;11.17;;
291;SDS011;23311;48.776;9.162;2023-09-12T04:02:32;18.30;;;10.03;;
291;SDS011;23311;48.776;9.162;2023-09-12T04:05:00;11.23;;;10.60;;
291;SDS011;23311;48.776;9.162;2023-09-12T04:07:28;14.33;;;10.23;;
291;SDS011;23311;48.776;9.162;2023-09-12T04:09:56;12.83;;;12.17;;
291;SDS011;23311;48.776;9.162;2023-09-12T04:12:25;12.83;;;11.10;;
291;SDS011;23311;48.776;9.162;2023-09-12T04:14:53;12.10;;;11.37;;
291;SDS011;23311;48.776;9.162;2023-09-12T04:17:22;11.40;;;10.50;;
291;SDS011;23311;48.776;9.162;2023-09-12T04:19:52;11.97;;;11.27;;
291;SDS011;23311;48.776;9.162;2023-09-12T04:22:20;12.97;;;11.27;;
291;SDS011;23311;48.776;9.162;2023-09-12T04:24:49;14.57;;;11.00;;
291;SDS011;23311;48.776;9.162;2023-09-12T04:27:17;10.80;;;10.20;;
291;SDS011;23311;48.776;9.162;2023-09-12T04:29:45;11.20;;;10.10;;
291;SDS011;23311;48.776;9.162;2023-09-12T04:32:14;10.53;;;10.00;;
291;SDS011;23311;48.776;9.162;2023-09-12T04:34:43;11.10;;;10.27;;
291;SDS011;23311;48.776;9.162;2023-09-12T04:37:12;9.90;;;9.40;;
291;SDS011;23311;48.776;9.162;2023-09-12T04:39:40;10.63;;;10.07;;
291;SDS011;23311;48.776;9.162;2023-09-12T04:42:09;13.63;;;11.43;;
291;SDS011;23311;48.776;9.162;2023-09-12T04:44:39;9.90;;;9.03;;
291;SDS011;23311;48.776;9.162;2023-09-12T04:47:08;12.20;;;10.07;;
291;SDS011;23311;48.776;9.162;2023-09-12T04:49:36;14.83;;;10.50;;
291;SDS011;23311;48.776;9.162;2023-09-12T04:52:05;16.37;;;10.23;;
291;SDS011;23311;48.776;9.162;2023-09-12T04:54:34;10.80;;;9.97;;
291;SDS011;23311;48.776;9.162;2023-09-12T04:57:03;12.97;;;10.20;;
291;SDS011;23311;48.776;9.162;2023-09-12T04:59:31;10.90;;;10.30;;
291;SDS011;23311;48.776;9.162;2023-09-12T05:02:00;10.70;;;10.17;;
291;SDS011;23311;48.776;9.162;2023-09-12T05:04:28;13.10;;;12.40;;
291;SDS011;23311;48.776;9.162;2023-09-12T05:06:56;16.50;;;10.70;;
291;SDS011;23311;48.776;9.162;2023-09-12T05:09:24;11.73;;;11.13;;
291;SDS011;23311;48.776;9.162;2023-09-12T05:11:54;12.20;;;10.80;;
291;SDS011;23311;48.776;9.162;2023-09-12T05:14:22;13.10;;;10.90;;
291;SDS011;23311;48.776;9.162;2023-09-12T05:16:50;12.03;;;10.50;;
291;SDS011;23311;48.776;9.162;2023-09-12T05:19:19;15.07;;;11.83;;
291;SDS011;23311;48.776;9.162;2023-09-12T05:21:47;11.87;;;11.27;;
291;SDS011;23311;48.776;9.162;2023-09-12T05:24:15;14.27;;;10.67;;
291;SDS011;23311;48.776;9.162;2023-09-12T05:26:43;11.20;;;10.60;;
291;SDS011;23311;48.776;9.162;2023-09-12T05:29:15;12.33;;;10.10;;
291;SDS011;23311;48.776;9.162;2023-09-12T05:31:43;11.50;;;9.60;;
291;SDS011;23311;48.776;9.162;2023-09-12T05:34:12;12.43;;;10.33;;
291;SDS011;23311;48.776;9.162;2023-09-12T05:36:40;13.27;;;10.83;;
291;SDS011;23311;48.776;9.162;2023-09-12T05:39:08;12.63;;;10.23;;
291;SDS011;23311;48.776;9.162;2023-09-12T05:41:36;10.77;;;10.10;;
291;SDS011;23311;48.776;9.162;2023-09-12T05:44:04;14.37;;;11.70;;
291;SDS011;23311;48.776;9.162;2023-09-12T05:46:34;10.47;;;9.93;;
291;SDS011;23311;48.776;9.162;2023-09-12T05:49:02;10.30;;;9.03;;
291;SDS011;23311;48.776;9.162;2023-09-12T05:51:31;12.33;;;10.37;;
291;SDS011;23311;48.776;9.162;2023-09-12T05:53:59;11.70;;;9.80;;
291;SDS011;23311;48.776;9.162;2023-09-12T05:56:27;10.57;;;9.73;;
291;SDS011;23311;48.776;9.162;2023-09-12T05:58:55;10.47;;;9.77;;
291;SDS011;23311;48.776;9.162;2023-09-12T06:01:23;9.67;;;9.17;;
291;SDS011;23311;48.776;9.162;2023-09-12T06:03:53;12.33;;;9.73;;
291;SDS011;23311;48.776;9.162;2023-09-12T06:06:21;9.83;;;9.40;;
291;SDS011;23311;48.776;9.162;2023-09-12T06:08:50;10.70;;;9.10;;
291;SDS011;23311;48.776;9.162;2023-09-12T06:11:19;11.00;;;9.97;;
291;SDS011;23311;48.776;9.162;2023-09-12T06:13:47;10.30;;;9.03;;
291;SDS011;23311;48.776;9.162;2023-09-12T06:16:16;10.50;;;9.93;;
291;SDS011;23311;48.776;9.162;2023-09-12T06:18:44;9.50;;;9.00;;
291;SDS011;23311;48.776;9.162;2023-09-12T06:21:13;12.40;;;9.50;;
291;SDS011;23311;48.776;9.162;2023-09-12T06:23:41;10.07;;;9.40;;
291;SDS011;23311;48.776;9.162;2023-09-12T06:26:10;11.43;;;9.77;;
291;SDS011;23311;48.776;9.162;2023-09-12T06:28:38;9.43;;;8.87;;
291;SDS011;23311;48.776;9.162;2023-09-12T06:31:07;11.70;;;10.43;;
291;SDS011;23311;48.776;9.162;2023-09-12T06:33:37;13.40;;;10.57;;
291;SDS011;23311;48.776;9.162;2023-09-12T06:36:06;12.30;;;10.23;;
291;SDS011;23311;48.776;9.162;2023-09-12T06:38:35;14.47;;;12.40;;
291;SDS011;23311;48.776;9.162;2023-09-12T06:41:03;14.17;;;11.37;;
291;SDS011;23311;48.776;9.162;2023-09-12T06:43:32;12.37;;;11.20;;
291;SDS011;23311;48.776;9.162;2023-09-12T06:46:00;11.93;;;11.13;;
291;SDS011;23311;48.776;9.162;2023-09-12T06:48:28;14.90;;;10.00;;
291;SDS011;23311;48.776;9.162;2023-09-12T06:50:56;14.37;;;11.90;;
291;SDS011;23311;48.776;9.162;2023-09-12T06:53:24;11.30;;;10.70;;
291;SDS011;23311;48.776;9.162;2023-09-12T06:55:54;10.97;;;9.70;;
291;SDS011;23311;48.776;9.162;2023-09-12T06:58:23;14.40;;;11.83;;
291;SDS011;23311;48.776;9.162;2023-09-12T07:00:51;15.10;;;12.37;;
291;SDS011;23311;48.776;9.162;2023-09-12T07:03:20;15.13;;;10.73;;
291;SDS011;23311;48.776;9.162;2023-09-12T07:05:48;11.13;;;10.20;;
291;SDS011;23311;48.776;9.162;2023-09-12T07:08:16;17.33;;;10.87;;
291;SDS011;23311;48.776;9.162;2023-09-12T07:10:44;12.60;;;11.07;;
291;SDS011;23311;48.776;9.162;2023-09-12T07:13:14;11.33;;;10.23;;
291;SDS011;23311;48.776;9.162;2023-09-12T07:15:42;13.80;;;11.37;;
291;SDS011;23311;48.776;9.162;2023-09-12T07:18:10;17.20;;;10.73;;
291;SDS011;23311;48.776;9.162;2023-09-12T07:20:38;12.13;;;11.53;;
291;SDS011;23311;48.776;9.162;2023-09-12T07:23:06;14.47;;;11.57;;
291;SDS011;23311;48.776;9.162;2023-09-12T07:25:38;14.33;;;10.50;;
291;SDS011;23311;48.776;9.162;2023-09-12T07:28:07;11.10;;;10.50;;
291;SDS011;23311;48.776;9.162;2023-09-12T07:30:37;11.47;;;10.80;;
291;SDS011;23311;48.776;9.162;2023-09-12T07:33:05;15.37;;;11.50;;
291;SDS011;23311;48.776;9.162;2023-09-12T07:35:33;12.17;;;10.43;;
291;SDS011;23311;48.776;9.162;2023-09-12T07:38:01;13.10;;;10.10;;
291;SDS011;23311;48.776;9.162;2023-09-12T07:40:30;10.77;;;10.23;;
291;SDS011;23311;48.776;9.162;2023-09-12T07:42:58;14.63;;;10.80;;
291;SDS011;23311;48.776;9.162;2023-09-12T07:45:26;12.00;;;10.57;;
291;SDS011;23311;48.776;9.162;2023-09-12T07:47:57;11.00;;;10.40;;
291;SDS011;23311;48.776;9.162;2023-09-12T07:50:25;14.93;;;9.87;;
291;SDS011;23311;48.776;9.162;2023-09-12T07:52:53;11.33;;;10.30;;
291;SDS011;23311;48.776;9.162;2023-09-12T07:55:23;10.37;;;9.83;;
291;SDS011;23311;48.776;9.162;2023-09-12T07:57:51;11.70;;;10.73;;
291;SDS011;23311;48.776;9.162;2023-09-12T08:00:19;13.90;;;10.77;;
291;SDS011;23311;48.776;9.162;2023-09-12T08:02:48;13.63;;;9.87;;
291;SDS011;23311;48.776;9.162;2023-09-12T08:05:18;11.23;;;10.73;;
291;SDS011;23311;48.776;9.162;2023-09-12T08:07:46;14.70;;;11.23;;
291;SDS011;23311;48.776;9.162;2023-09-12T08:10:14;13.23;;;10.97;;
291;SDS011;23311;48.776;9.162;2023-09-12T08:12:42;16.17;;;11.43;;
291;SDS011;23311;48.776;9.162;2023-09-12T08:15:10;11.50;;;10.90;;
291;SDS011;23311;48.776;9.162;2023-09-12T08:17:39;16.97;;;11.03;;
291;SDS011;23311;48.776;9.162;2023-09-12T08:20:07;11.37;;;10.77;;
291;SDS011;23311;48.776;9.162;2023-09-12T08:22:38;12.67;;;9.73;;
291;SDS011;23311;48.776;9.162;2023-09-12T08:25:06;15.20;;;10.47;;
291;SDS011;23311;48.776;9.162;2023-09-12T08:27:36;10.70;;;10.10;;
291;SDS011;23311;48.776;9.162;2023-09-12T08:30:04;10.80;;;10.30;;
291;SDS011;23311;48.776;9.162;2023-09-12T08:32:33;11.27;;;10.00;;
291;SDS011;23311;48.776;9.162;2023-09-12T08:35:01;14.53;;;11.03;;
291;SDS011;23311;48.776;9.162;2023-09-12T08:37:30;16.10;;;10.27;;
291;SDS011;23311;48.776;9.162;2023-09-12T08:39:59;10.73;;;8.87;;
291;SDS011;23311;48.776;9.162;2023-09-12T08:42:29;10.33;;;9.83;;
291;SDS011;23311;48.776;9.162;2023-09-12T08:44:58;9.73;;;9.23;;
291;SDS011;23311;48.776;9.162;2023-09-12T08:47:26;10.63;;;9.73;;
291;SDS011;23311;48.776;9.162;2023-09-12T08:49:55;12.60;;;10.10;;
291;SDS011;23311;48.776;9.162;2023-09-12T08:52:24;12.33;;;9.70;;
291;SDS011;23311;48.776;9.162;2023-09-12T08:54:52;15.10;;;10.50;;
291;SDS011;23311;48.776;9.162;2023-09-12T08:57:22;11.30;;;9.60;;
291;SDS011;23311;48.776;9.162;2023-09-12T08:59:50;11.07;;;9.93;;
291;SDS011;23311;48.776;9.162;2023-09-12T09:02:19;12.07;;;10.87;;
291;SDS011;23311;48.776;9.162;2023-09-12T09:04:48;11.90;;;10.90;;
291;SDS011;23311;48.776;9.162;2023-09-12T09:07:18;11.10;;;10.30;;
291;SDS011;23311;48.776;9.162;2023-09-12T09:09:48;10.00;;;9.50;;
291;SDS011;23311;48.776;9.162;2023-09-12T09:12:18;12.00;;;10.07;;
291;SDS011;23311;48.776;9.162;2023-09-12T09:14:48;11.30;;;10.47;;
291;SDS011;23311;48.776;9.162;2023-09-12T09:17:16;12.20;;;9.67;;
291;SDS011;23311;48.776;9.162;2023-09-12T09:20:01;13.07;;;10.00;;
291;SDS011;23311;48.776;9.162;2023-09-12T09:22:35;11.67;;;10.77;;
291;SDS011;23311;48.776;9.162;2023-09-12T09:25:10;15.00;;;10.07;;
291;SDS011;23311;48.776;9.162;2023-09-12T09:27:39;10.07;;;9.57;;
291;SDS011;23311;48.776;9.162;2023-09-12T09:30:10;10.60;;;10.00;;
291;SDS011;23311;48.776;9.162;2023-09-12T09:32:39;10.07;;;9.60;;
291;SDS011;23311;48.776;9.162;2023-09-12T09:35:07;11.27;;;10.67;;
291;SDS011;23311;48.776;9.162;2023-09-12T09:37:37;10.37;;;9.80;;
291;SDS011;23311;48.776;9.162;2023-09-12T09:40:06;14.50;;;10.10;;
291;SDS011;23311;48.776;9.162;2023-09-12T09:42:37;10.40;;;9.90;;
291;SDS011;23311;48.776;9.162;2023-09-12T09:45:06;11.10;;;10.50;;
291;SDS011;23311;48.776;9.162;2023-09-12T09:47:36;11.53;;;9.23;;
291;SDS011;23311;48.776;9.162;2023-09-12T09:50:04;10.07;;;9.53;;
291;SDS011;23311;48.776;9.162;2023-09-12T09:52:32;12.33;;;10.10;;
291;SDS011;23311;48.776;9.162;2023-09-12T09:55:01;12.87;;;10.07;;
291;SDS011;23311;48.776;9.162;2023-09-12T09:57:32;10.97;;;10.37;;
291;SDS011;23311;48.776;9.162;2023-09-12T10:00:04;10.57;;;10.00;;
291;SDS011;23311;48.776;9.162;2023-09-12T10:02:36;13.90;;;10.03;;
291;SDS011;23311;48.776;9.162;2023-09-12T10:05:08;11.10;;;9.30;;
291;SDS011;23311;48.776;9.162;2023-09-12T10:07:37;11.70;;;10.20;;
291;SDS011;23311;48.776;9.162;2023-09-12T10:10:07;11.60;;;10.17;;
291;SDS011;23311;48.776;9.162;2023-09-12T10:12:39;11.07;;;10.47;;
291;SDS011;23311;48.776;9.162;2023-09-12T10:15:15;10.20;;;9.70;;
291;SDS011;23311;48.776;9.162;2023-09-12T10:17:51;10.00;;;8.93;;
291;SDS011;23311;48.776;9.162;2023-09-12T10:20:24;10.80;;;10.13;;
291;SDS011;23311;48.776;9.162;2023-09-12T10:23:00;10.60;;;10.03;;
291;SDS011;23311;48.776;9.162;2023-09-12T10:25:37;12.90;;;9.67;;
291;SDS011;23311;48.776;9.162;2023-09-12T10:28:07;11.23;;;9.80;;
291;SDS011;23311;48.776;9.162;2023-09-12T10:30:36;10.60;;;10.00;;
291;SDS011;23311;48.776;9.162;2023-09-12T10:33:06;10.10;;;9.60;;
291;SDS011;23311;48.776;9.162;2023-09-12T10:35:36;10.20;;;9.70;;
291;SDS011;23311;48.776;9.162;2023-09-12T10:38:05;10.77;;;10.17;;
291;SDS011;23311;48.776;9.162;2023-09-12T10:40:35;10.73;;;10.17;;
291;SDS011;23311;48.776;9.162;2023-09-12T10:43:10;11.50;;;10.90;;
291;SDS011;23311;48.776;9.162;2023-09-12T10:45:39;9.93;;;9.43;;
291;SDS011;23311;48.776;9.162;2023-09-12T10:48:10;10.23;;;9.43;;
291;SDS011;23311;48.776;9.162;2023-09-12T10:50:38;12.30;;;9.53;;
291;SDS011;23311;48.776;9.162;2023-09-12T10:53:08;11.97;;;10.10;;
291;SDS011;23311;48.776;9.162;2023-09-12T10:55:38;14.43;;;10.87;;
291;SDS011;23311;48.776;9.162;2023-09-12T10:58:07;9.77;;;9.30;;
291;SDS011;23311;48.776;9.162;2023-09-12T11:00:37;10.10;;;9.60;;
291;SDS011;23311;48.776;9.162;2023-09-12T11:06:19;11.50;;;10.90;;
291;SDS011;23311;48.776;9.162;2023-09-12T11:11:46;10.07;;;9.57;;
291;SDS011;23311;48.776;9.162;2023-09-12T11:14:15;10.00;;;9.50;;
291;SDS011;23311;48.776;9.162;2023-09-12T11:16:50;14.10;;;8.77;;
291;SDS011;23311;48.776;9.162;2023-09-12T11:19:50;11.20;;;8.70;;
291;SDS011;23311;48.776;9.162;2023-09-12T11:22:23;9.63;;;9.13;;
291;SDS011;23311;48.776;9.162;2023-09-12T11:24:53;10.23;;;9.53;;
291;SDS011;23311;48.776;9.162;2023-09-12T11:27:23;10.20;;;9.70;;
291;SDS011;23311;48.776;9.162;2023-09-12T11:29:53;9.37;;;8.87;;
291;SDS011;23311;48.776;9.162;2023-09-12T11:32:30;9.93;;;9.10;;
291;SDS011;23311;48.776;9.162;2023-09-12T11:35:05;9.10;;;8.60;;
291;SDS011;23311;48.776;9.162;2023-09-12T11:37:35;9.00;;;8.50;;
291;SDS011;23311;48.776;9.162;2023-09-12T11:40:15;9.53;;;8.70;;
291;SDS011;23311;48.776;9.162;2023-09-12T11:42:44;10.00;;;9.50;;
291;SDS011;23311;48.776;9.162;2023-09-12T11:45:16;10.80;;;10.20;;
291;SDS011;23311;48.776;9.162;2023-09-12T11:47:46;9.83;;;9.33;;
291;SDS011;23311;48.776;9.162;2023-09-12T11:50:32;11.53;;;9.40;;
291;SDS011;23311;48.776;9.162;2023-09-12T11:53:02;9.30;;;8.10;;
291;SDS011;23311;48.776;9.162;2023-09-12T11:55:31;9.33;;;8.87;;
291;SDS011;23311;48.776;9.162;2023-09-12T11:58:01;12.97;;;9.40;;
291;SDS011;23311;48.776;9.162;2023-09-12T12:00:29;10.97;;;10.33;;
291;SDS011;23311;48.776;9.162;2023-09-12T12:02:58;14.80;;;9.33;;
291;SDS011;23311;48.776;9.162;2023-09-12T12:05:26;12.10;;;9.20;;
291;SDS011;23311;48.776;9.162;2023-09-12T12:07:56;10.60;;;9.40;;
291;SDS011;23311;48.776;9.162;2023-09-12T12:10:48;10.07;;;9.20;;
291;SDS011;23311;48.776;9.162;2023-09-12T12:13:17;8.80;;;8.30;;
291;SDS011;23311;48.776;9.162;2023-09-12T12:15:45;10.80;;;8.47;;
291;SDS011;23311;48.776;9.162;2023-09-12T12:18:14;11.30;;;9.10;;
291;SDS011;23311;48.776;9.162;2023-09-12T12:20:42;9.00;;;8.50;;
291;SDS011;23311;48.776;9.162;2023-09-12T12:23:12;9.37;;;8.80;;
291;SDS011;23311;48.776;9.162;2023-09-12T12:25:40;8.67;;;8.17;;
291;SDS011;23311;48.776;9.162;2023-09-12T12:28:08;9.53;;;9.00;;
291;SDS011;23311;48.776;9.162;2023-09-12T12:30:36;10.90;;;8.57;;
291;SDS011;23311;48.776;9.162;2023-09-12T12:33:07;10.40;;;9.20;;
291;SDS011;23311;48.776;9.162;2023-09-12T12:35:49;9.60;;;9.10;;
291;SDS011;23311;48.776;9.162;2023-09-12T12:38:27;9.30;;;8.80;;
291;SDS011;23311;48.776;9.162;2023-09-12T12:40:58;8.70;;;8.20;;
291;SDS011;23311;48.776;9.162;2023-09-12T12:43:27;9.80;;;8.83;;
291;SDS011;23311;48.776;9.162;2023-09-12T12:45:56;9.10;;;8.57;;
291;SDS011;23311;48.776;9.162;2023-09-12T12:48:31;9.30;;;8.40;;
291;SDS011;23311;48.776;9.162;2023-09-12T12:51:12;8.53;;;8.07;;
291;SDS011;23311;48.776;9.162;2023-09-12T12:53:44;14.70;;;9.50;;
291;SDS011;23311;48.776;9.162;2023-09-12T12:56:19;8.13;;;7.73;;
291;SDS011;23311;48.776;9.162;2023-09-12T12:58:49;10.93;;;7.73;;
291;SDS011;23311;48.776;9.162;2023-09-12T13:01:18;7.87;;;7.47;;
291;SDS011;23311;48.776;9.162;2023-09-12T13:03:47;7.70;;;7.30;;
291;SDS011;23311;48.776;9.162;2023-09-12T13:06:17;8.80;;;8.30;;
291;SDS011;23311;48.776;9.162;2023-09-12T13:08:47;8.80;;;7.60;;
291;SDS011;23311;48.776;9.162;2023-09-12T13:11:16;8.23;;;6.23;;
291;SDS011;23311;48.776;9.162;2023-09-12T13:13:44;7.90;;;7.50;;
291;SDS011;23311;48.776;9.162;2023-09-12T13:16:15;9.33;;;6.77;;
291;SDS011;23311;48.776;9.162;2023-09-12T13:18:44;7.70;;;7.30;;
291;SDS011;23311;48.776;9.162;2023-09-12T13:21:12;12.10;;;7.13;;
291;SDS011;23311;48.776;9.162;2023-09-12T13:23:40;11.47;;;7.70;;
291;SDS011;23311;48.776;9.162;2023-09-12T13:26:10;7.03;;;6.50;;
291;SDS011;23311;48.776;9.162;2023-09-12T13:28:39;7.33;;;6.93;;
291;SDS011;23311;48.776;9.162;2023-09-12T13:31:07;7.83;;;7.43;;
291;SDS011;23311;48.776;9.162;2023-09-12T13:33:35;10.40;;;7.57;;
291;SDS011;23311;48.776;9.162;2023-09-12T13:36:03;7.87;;;7.47;;
291;SDS011;23311;48.776;9.162;2023-09-12T13:38:33;8.07;;;7.03;;
291;SDS011;23311;48.776;9.162;2023-09-12T13:41:01;8.83;;;7.47;;
291;SDS011;23311;48.776;9.162;2023-09-12T13:43:31;8.67;;;7.83;;
291;SDS011;23311;48.776;9.162;2023-09-12T13:45:59;11.10;;;6.93;;
291;SDS011;23311;48.776;9.162;2023-09-12T13:48:27;8.23;;;7.67;;
291;SDS011;23311;48.776;9.162;2023-09-12T13:50:56;10.50;;;7.07;;
291;SDS011;23311;48.776;9.162;2023-09-12T13:53:24;8.17;;;6.77;;
291;SDS011;23311;48.776;9.162;2023-09-12T13:55:52;8.90;;;8.40;;
291;SDS011;23311;48.776;9.162;2023-09-12T13:58:38;8.43;;;8.00;;
291;SDS011;23311;48.776;9.162;2023-09-12T14:01:12;9.50;;;9.00;;
291;SDS011;23311;48.776;9.162;2023-09-12T14:03:53;8.63;;;7.90;;
291;SDS011;23311;48.776;9.162;2023-09-12T14:06:22;8.20;;;7.80;;
291;SDS011;23311;48.776;9.162;2023-09-12T14:08:51;8.60;;;7.67;;
291;SDS011;23311;48.776;9.162;2023-09-12T14:11:20;9.67;;;8.60;;
291;SDS011;23311;48.776;9.162;2023-09-12T14:13:59;8.33;;;7.50;;
291;SDS011;23311;48.776;9.162;2023-09-12T14:16:41;10.00;;;8.50;;
291;SDS011;23311;48.776;9.162;2023-09-12T14:19:13;8.20;;;7.80;;
291;SDS011;23311;48.776;9.162;2023-09-12T14:21:42;8.37;;;7.47;;
291;SDS011;23311;48.776;9.162;2023-09-12T14:24:13;8.83;;;7.70;;
291;SDS011;23311;48.776;9.162;2023-09-12T14:26:41;9.03;;;7.23;;
291;SDS011;23311;48.776;9.162;2023-09-12T14:29:12;9.03;;;7.80;;
291;SDS011;23311;48.776;9.162;2023-09-12T14:31:41;8.93;;;8.07;;
291;SDS011;23311;48.776;9.162;2023-09-12T14:34:16;7.97;;;7.43;;
291;SDS011;23311;48.776;9.162;2023-09-12T14:36:45;9.90;;;8.57;;
291;SDS011;23311;48.776;9.162;2023-09-12T14:39:14;8.67;;;8.17;;
291;SDS011;23311;48.776;9.162;2023-09-12T14:41:42;8.90;;;8.40;;
291;SDS011;23311;48.776;9.162;2023-09-12T14:44:17;7.97;;;7.57;;
291;SDS011;23311;48.776;9.162;2023-09-12T14:46:45;11.40;;;9.20;;
291;SDS011;23311;48.776;9.162;2023-09-12T14:49:14;8.40;;;8.00;;
291;SDS011;23311;48.776;9.162;2023-09-12T14:51:42;9.83;;;8.30;;
291;SDS011;23311;48.776;9.162;2023-09-12T14:54:11;7.40;;;7.00;;
291;SDS011;23311;48.776;9.162;2023-09-12T14:56:40;12.97;;;8.77;;
291;SDS011;23311;48.776;9.162;2023-09-12T14:59:08;10.87;;;9.10;;
291;SDS011;23311;48.776;9.162;2023-09-12T15:01:38;9.50;;;8.37;;
291;SDS011;23311;48.776;9.162;2023-09-12T15:04:06;10.77;;;8.20;;
291;SDS011;23311;48.776;9.162;2023-09-12T15:06:35;9.50;;;8.97;;
291;SDS011;23311;48.776;9.162;2023-09-12T15:09:03;7.97;;;7.50;;
291;SDS011;23311;48.776;9.162;2023-09-12T15:11:32;8.37;;;7.90;;
291;SDS011;23311;48.776;9.162;2023-09-12T15:14:00;11.03;;;8.83;;
291;SDS011;23311;48.776;9.162;2023-09-12T15:16:28;8.93;;;7.50;;